메인 페이지
METAR-TAF:

METAR-TAF

공항 :

McAlester, 오클라호마, 미국

위도: 34-52-56N, 경도: 095-46-59W, 고도: 234m

현재 날씨관측

예보는 31분 전, 22:53시(UTC)에 발표되었습니다.
남동3kt
온도 33°C
습도 44%
기압 1009 hPa
시정: 16.1km
맑음

METAR: KMLC 262253Z AUTO 13003KT 10SM CLR 33/19 A2979 RMK AO2 SLP078 T03330194

시각: 18:24 (23:24 UTC)

예보

예보는 6 시간 4분 전, 17:20시(UTC)에 발표되었습니다.
예보 대상 시간: 26일 18시부터 27일 18시까지 (UTC)
여러 방향의 바람 4kt
시정: 10km
맑음
27일 1500시부터 (UTC)
남동4kt
시정: 10km
맑음

TAF: KMLC 261720Z 2618/2718 VRB04KT P6SM SKC FM271500 13004KT P6SM SKC

4,000개 이상의 공항 관측 자료 및 예보 (METAR 및 TAF 보고).

지도상에서 검색 가능한 기상관측소가 노란 점과 빨간 점으로 표시되어 있습니다.

기상관측소 명을 보려면 표시 위로 마우스를 이동하세요.

날씨 관측과 예보를 보려면 클릭하세요.

지도 변경 : 확대하려면 엑스 표시가 있는 녹색 버튼, 축소하려면 빼기 표시가 있는 녹색 버튼, 다음 페이지의 지도를 보려면 녹색 화살표를 클릭하세요.


METAR-TAF: